Time;durP1;ratioP1;P1;durP2;ratioP2;P2;SDS_P1;SDS_P2;PMS_P1;PMS_P2;Temp;Humidity;BMP_temperature;BMP_pressure;BME280_temperature;BME280_humidity;BME280_pressure;Samples;Min_cycle;Max_cycle;Signal;HPM_P1;HPM_P2
2023/09/22 00:02:07;;;;;;;4.53;3.17;;;;;16.00;95837.00;;;;5041208;28;20223;-70
2023/09/22 00:04:58;;;;;;;4.00;2.50;;;;;15.90;95841.00;;;;5051233;28;20705;-69
2023/09/22 00:07:47;;;;;;;5.33;2.83;;;;;16.40;95842.00;;;;5047019;28;20197;-70
2023/09/22 00:10:36;;;;;;;5.50;2.73;;;;;16.60;95839.00;;;;5040995;28;20604;-73
2023/09/22 00:13:25;;;;;;;4.13;2.70;;;;;16.30;95837.00;;;;5048767;28;20303;-70
2023/09/22 00:16:14;;;;;;;6.57;2.80;;;;;16.70;95822.00;;;;5047886;28;20593;-72
2023/09/22 00:19:05;;;;;;;5.97;3.13;;;;;16.60;95825.00;;;;5043662;28;20204;-70
2023/09/22 00:21:56;;;;;;;3.73;2.60;;;;;16.00;95835.00;;;;5048898;28;20247;-72
2023/09/22 00:24:45;;;;;;;5.90;3.73;;;;;16.30;95836.00;;;;5046153;28;20830;-70
2023/09/22 00:27:34;;;;;;;4.17;2.50;;;;;16.30;95831.00;;;;5045254;28;20209;-72
2023/09/22 00:30:23;;;;;;;6.50;2.80;;;;;16.30;95839.00;;;;5041874;28;20699;-70
2023/09/22 00:33:12;;;;;;;6.97;2.73;;;;;15.90;95822.00;;;;5041864;28;20225;-71
2023/09/22 00:36:05;;;;;;;5.83;2.97;;;;;16.00;95828.00;;;;5047181;28;20205;-71
2023/09/22 00:38:55;;;;;;;5.13;3.43;;;;;16.30;95825.00;;;;5049745;28;20208;-70
2023/09/22 00:41:44;;;;;;;5.63;2.93;;;;;16.60;95834.00;;;;5048906;28;20228;-72
2023/09/22 00:44:33;;;;;;;6.67;2.93;;;;;16.30;95831.00;;;;5044713;28;20233;-71
2023/09/22 00:47:22;;;;;;;5.30;2.83;;;;;16.40;95823.00;;;;5044893;28;20224;-71
2023/09/22 00:50:11;;;;;;;5.23;2.70;;;;;16.00;95831.00;;;;5049915;28;20212;-70
2023/09/22 00:53:00;;;;;;;9.70;2.87;;;;;16.20;95835.00;;;;5047528;28;20232;-71
2023/09/22 00:55:53;;;;;;;4.73;2.67;;;;;16.40;95838.00;;;;5048184;28;20204;-72
2023/09/22 00:58:42;;;;;;;3.80;3.13;;;;;16.50;95829.00;;;;5044779;28;20204;-70
2023/09/22 01:01:31;;;;;;;5.77;3.50;;;;;16.30;95827.00;;;;5043111;28;20202;-72
2023/09/22 01:04:20;;;;;;;4.73;3.37;;;;;15.80;95830.00;;;;5045281;28;20216;-69
2023/09/22 01:07:09;;;;;;;7.10;3.37;;;;;16.40;95831.00;;;;5042382;28;20673;-69
2023/09/22 01:10:08;;;;;;;8.33;2.90;;;;;16.50;95843.00;;;;5046326;28;20213;-69
2023/09/22 01:12:59;;;;;;;5.47;3.23;;;;;16.50;95845.00;;;;5049755;28;20228;-69
2023/09/22 01:15:48;;;;;;;3.80;2.80;;;;;15.80;95844.00;;;;5044660;28;20192;-69
2023/09/22 01:18:37;;;;;;;5.43;3.13;;;;;15.90;95855.00;;;;5045245;28;20207;-70
2023/09/22 01:21:29;;;;;;;5.77;3.63;;;;;15.60;95846.00;;;;5050060;28;20212;-69
2023/09/22 01:24:18;;;;;;;8.23;3.10;;;;;16.20;95838.00;;;;5048200;28;20286;-69
2023/09/22 01:27:07;;;;;;;7.03;3.30;;;;;16.40;95847.00;;;;5046359;28;20215;-69
2023/09/22 01:29:56;;;;;;;3.63;2.50;;;;;16.50;95846.00;;;;5047611;28;20565;-69
2023/09/22 01:32:45;;;;;;;4.13;3.73;;;;;16.20;95843.00;;;;5047776;28;20633;-69
2023/09/22 01:35:35;;;;;;;7.33;3.50;;;;;16.00;95829.00;;;;5046331;28;20193;-69
2023/09/22 01:38:26;;;;;;;6.50;3.77;;;;;16.20;95828.00;;;;5045137;28;20593;-69
2023/09/22 01:41:15;;;;;;;4.63;2.67;;;;;16.20;95820.00;;;;5039484;28;20220;-69
2023/09/22 01:44:04;;;;;;;5.43;3.20;;;;;16.10;95812.00;;;;5042479;28;20204;-69
2023/09/22 01:46:53;;;;;;;4.00;2.63;;;;;16.10;95806.00;;;;5047250;28;20200;-69
2023/09/22 01:49:42;;;;;;;4.17;3.07;;;;;16.10;95800.00;;;;5049321;28;20219;-69
2023/09/22 01:52:31;;;;;;;2.83;2.43;;;;;15.60;95788.00;;;;5049724;28;20239;-69
2023/09/22 01:55:22;;;;;;;6.23;3.43;;;;;15.50;95767.00;;;;5048485;28;20583;-69
2023/09/22 01:58:11;;;;;;;5.20;3.17;;;;;15.50;95775.00;;;;5047367;28;20568;-70
2023/09/22 02:01:00;;;;;;;5.30;2.80;;;;;14.80;95780.00;;;;5049100;28;20585;-70
2023/09/22 02:03:50;;;;;;;4.00;2.70;;;;;14.80;95794.00;;;;5048667;28;20235;-69
2023/09/22 02:06:40;;;;;;;3.50;2.90;;;;;15.60;95788.00;;;;5049520;28;20220;-69
2023/09/22 02:09:29;;;;;;;2.60;2.40;;;;;15.80;95793.00;;;;5046807;28;20208;-69
2023/09/22 02:12:19;;;;;;;3.37;3.07;;;;;15.70;95778.00;;;;5042892;28;20228;-71
2023/09/22 02:15:10;;;;;;;2.87;2.50;;;;;16.00;95785.00;;;;5044096;28;20577;-70
2023/09/22 02:17:59;;;;;;;3.50;2.97;;;;;16.20;95793.00;;;;5044936;28;20212;-70
2023/09/22 02:20:48;;;;;;;6.00;3.00;;;;;16.00;95789.00;;;;5044819;28;20205;-70
2023/09/22 02:23:38;;;;;;;5.63;2.60;;;;;16.00;95796.00;;;;5049443;28;20221;-70
2023/09/22 02:26:27;;;;;;;3.87;2.90;;;;;16.10;95785.00;;;;5044781;28;20232;-70
2023/09/22 02:29:17;;;;;;;4.27;2.50;;;;;16.20;95789.00;;;;5033665;28;20207;-70
2023/09/22 02:32:06;;;;;;;3.27;2.77;;;;;16.20;95790.00;;;;5054128;28;20238;-70
2023/09/22 02:34:55;;;;;;;5.67;2.50;;;;;16.10;95781.00;;;;5055516;28;20200;-70
2023/09/22 02:37:44;;;;;;;7.67;3.20;;;;;16.20;95780.00;;;;5049115;28;20209;-70
2023/09/22 02:40:33;;;;;;;6.43;2.63;;;;;16.10;95782.00;;;;5048882;28;20204;-69
2023/09/22 02:43:22;;;;;;;6.13;2.73;;;;;16.10;95786.00;;;;5042384;28;20704;-71
2023/09/22 02:46:13;;;;;;;3.87;3.00;;;;;16.00;95787.00;;;;5049064;28;20251;-70
2023/09/22 02:49:03;;;;;;;5.10;3.10;;;;;15.90;95778.00;;;;5046349;28;20205;-71
2023/09/22 02:51:52;;;;;;;4.57;2.83;;;;;15.40;95783.00;;;;5043482;28;20600;-69
2023/09/22 02:54:41;;;;;;;5.73;3.07;;;;;15.50;95797.00;;;;5046127;28;20201;-69
2023/09/22 02:57:30;;;;;;;5.53;4.07;;;;;15.50;95807.00;;;;5046173;28;20211;-70
2023/09/22 03:00:20;;;;;;;4.63;2.50;;;;;15.50;95794.00;;;;5044196;28;20596;-70
2023/09/22 03:03:11;;;;;;;6.00;3.17;;;;;15.40;95801.00;;;;5040583;28;20279;-70
2023/09/22 03:06:00;;;;;;;4.53;3.17;;;;;15.40;95788.00;;;;5052118;28;20228;-70
2023/09/22 03:08:49;;;;;;;10.07;2.70;;;;;15.70;95789.00;;;;5045693;28;20200;-69
2023/09/22 03:11:38;;;;;;;6.33;3.10;;;;;15.80;95794.00;;;;5038228;28;20581;-70
2023/09/22 03:14:27;;;;;;;5.10;3.03;;;;;15.80;95788.00;;;;5037212;28;20200;-70
2023/09/22 03:17:16;;;;;;;5.00;2.63;;;;;15.70;95783.00;;;;5057814;28;20676;-70
2023/09/22 03:20:11;;;;;;;5.07;3.20;;;;;16.00;95778.00;;;;5035777;28;20219;-70
2023/09/22 03:23:01;;;;;;;2.97;2.50;;;;;15.70;95780.00;;;;5040548;28;20302;-69
2023/09/22 03:25:50;;;;;;;3.60;2.97;;;;;15.60;95785.00;;;;5045471;28;20224;-70
2023/09/22 03:28:39;;;;;;;3.27;2.37;;;;;15.70;95803.00;;;;5050049;28;20204;-70
2023/09/22 03:31:28;;;;;;;2.80;2.50;;;;;15.70;95797.00;;;;5031481;28;20213;-70
2023/09/22 03:34:17;;;;;;;4.20;3.00;;;;;15.60;95785.00;;;;5035101;28;20205;-70
2023/09/22 03:37:09;;;;;;;3.63;2.77;;;;;15.20;95807.00;;;;5036949;28;20224;-69
2023/09/22 03:40:04;;;;;;;5.90;3.23;;;;;15.20;95809.00;;;;5044529;28;20212;-69
2023/09/22 03:42:53;;;;;;;7.77;2.53;;;;;15.40;95813.00;;;;5046996;28;20221;-71
2023/09/22 03:45:42;;;;;;;3.77;2.93;;;;;15.60;95795.00;;;;5051699;28;20249;-70
2023/09/22 03:48:31;;;;;;;6.90;3.20;;;;;15.10;95803.00;;;;5046404;28;20630;-72
2023/09/22 03:51:20;;;;;;;4.63;2.73;;;;;15.40;95808.00;;;;5042816;28;20215;-70
2023/09/22 03:54:11;;;;;;;2.77;2.13;;;;;15.50;95793.00;;;;5040651;28;20223;-73
2023/09/22 03:57:00;;;;;;;5.47;2.50;;;;;15.70;95807.00;;;;5044276;28;20212;-71
2023/09/22 03:59:49;;;;;;;6.13;2.77;;;;;15.60;95807.00;;;;5046832;28;20197;-69
2023/09/22 04:02:39;;;;;;;6.43;2.63;;;;;15.60;95809.00;;;;5042687;28;20231;-70
2023/09/22 04:05:28;;;;;;;3.90;2.47;;;;;15.60;95811.00;;;;5045311;28;20216;-70
2023/09/22 04:08:19;;;;;;;4.23;2.87;;;;;15.70;95803.00;;;;5045739;28;20208;-70
2023/09/22 04:11:09;;;;;;;5.50;2.77;;;;;15.40;95814.00;;;;5039183;28;20211;-70
2023/09/22 04:13:58;;;;;;;3.47;2.50;;;;;15.60;95804.00;;;;5047453;28;20208;-70
2023/09/22 04:16:47;;;;;;;4.13;3.03;;;;;15.70;95799.00;;;;5052730;28;20211;-70
2023/09/22 04:19:37;;;;;;;3.70;2.13;;;;;15.40;95799.00;;;;5047697;28;20207;-70
2023/09/22 04:22:28;;;;;;;2.50;2.30;;;;;15.20;95794.00;;;;5044778;28;20282;-70
2023/09/22 04:25:29;;;;;;;3.80;2.70;;;;;15.10;95788.00;;;;5043911;28;20662;-69
2023/09/22 04:28:23;;;;;;;2.83;2.20;;;;;15.00;95795.00;;;;5045843;28;20243;-69
2023/09/22 04:31:12;;;;;;;4.33;2.53;;;;;15.30;95802.00;;;;5046666;28;20211;-70
2023/09/22 04:34:01;;;;;;;8.97;3.23;;;;;14.80;95808.00;;;;5051518;28;20279;-69
2023/09/22 04:36:51;;;;;;;4.97;3.47;;;;;14.50;95820.00;;;;5047481;28;20609;-68
2023/09/22 04:39:40;;;;;;;4.20;3.40;;;;;14.90;95825.00;;;;5053291;28;20216;-70
2023/09/22 04:42:29;;;;;;;4.90;2.90;;;;;15.00;95825.00;;;;5052206;28;20642;-69
2023/09/22 04:45:21;;;;;;;3.20;2.50;;;;;15.20;95828.00;;;;5046029;28;20205;-69
2023/09/22 04:48:11;;;;;;;5.27;3.07;;;;;15.40;95829.00;;;;5045490;28;20233;-71
2023/09/22 04:51:00;;;;;;;8.60;3.37;;;;;15.50;95826.00;;;;5049722;28;20208;-70
2023/09/22 04:53:49;;;;;;;7.50;3.00;;;;;15.50;95830.00;;;;5048161;28;20227;-70
2023/09/22 04:56:38;;;;;;;9.07;3.10;;;;;15.10;95840.00;;;;5046099;28;20196;-70
2023/09/22 04:59:27;;;;;;;4.40;2.60;;;;;15.30;95835.00;;;;5050766;28;20677;-70
2023/09/22 05:02:18;;;;;;;5.47;3.03;;;;;15.50;95823.00;;;;5048440;28;20243;-70
2023/09/22 05:05:08;;;;;;;5.90;3.20;;;;;15.50;95828.00;;;;5046878;28;20224;-71
2023/09/22 05:07:57;;;;;;;3.10;2.63;;;;;15.20;95838.00;;;;5048541;28;20221;-70
2023/09/22 05:10:48;;;;;;;5.30;3.60;;;;;15.20;95830.00;;;;5050260;28;20208;-70
2023/09/22 05:13:37;;;;;;;5.83;2.93;;;;;15.10;95841.00;;;;5047480;28;20240;-70
2023/09/22 05:16:27;;;;;;;7.07;2.93;;;;;15.50;95845.00;;;;5036794;28;20588;-70
2023/09/22 05:19:18;;;;;;;4.20;2.30;;;;;15.40;95849.00;;;;5033174;28;20202;-70
2023/09/22 05:22:07;;;;;;;3.53;2.50;;;;;15.60;95839.00;;;;5046944;28;20239;-70
2023/09/22 05:24:56;;;;;;;2.93;2.53;;;;;15.40;95852.00;;;;5053026;28;20208;-70
2023/09/22 05:27:46;;;;;;;7.23;2.90;;;;;15.30;95846.00;;;;5048798;28;20288;-70
2023/09/22 05:30:38;;;;;;;4.90;3.07;;;;;15.10;95844.00;;;;5048927;28;20201;-69
2023/09/22 05:33:28;;;;;;;5.77;2.90;;;;;15.10;95847.00;;;;5048837;28;20221;-70
2023/09/22 05:36:19;;;;;;;4.10;2.37;;;;;15.10;95841.00;;;;5042191;28;20254;-70
2023/09/22 05:39:10;;;;;;;7.27;3.07;;;;;15.30;95850.00;;;;5045706;28;20566;-69
2023/09/22 05:42:00;;;;;;;3.83;3.00;;;;;15.30;95853.00;;;;5049198;28;20217;-71
2023/09/22 05:44:49;;;;;;;6.67;3.10;;;;;15.30;95851.00;;;;5044040;28;20196;-70
2023/09/22 05:47:38;;;;;;;3.70;3.07;;;;;15.60;95841.00;;;;5049659;28;20216;-71
2023/09/22 05:50:27;;;;;;;6.27;2.67;;;;;15.80;95845.00;;;;5042931;28;20213;-71
2023/09/22 05:53:17;;;;;;;5.00;2.97;;;;;15.80;95845.00;;;;5045686;28;20260;-71
2023/09/22 05:56:08;;;;;;;5.53;3.03;;;;;15.90;95851.00;;;;5046678;28;20227;-71
2023/09/22 05:58:57;;;;;;;3.53;3.23;;;;;15.60;95855.00;;;;5046073;28;20208;-70
2023/09/22 06:01:47;;;;;;;3.67;3.00;;;;;15.90;95854.00;;;;5046994;28;20221;-71
2023/09/22 06:04:36;;;;;;;10.13;2.77;;;;;15.70;95860.00;;;;5049266;28;20641;-71
2023/09/22 06:07:25;;;;;;;9.70;2.80;;;;;15.90;95863.00;;;;5039960;28;20262;-72
2023/09/22 06:10:16;;;;;;;4.63;2.67;;;;;15.80;95869.00;;;;5046042;28;20205;-71
2023/09/22 06:13:05;;;;;;;5.10;3.17;;;;;15.90;95876.00;;;;5045655;28;20224;-71
2023/09/22 06:15:55;;;;;;;7.13;3.17;;;;;16.20;95902.00;;;;5052592;28;20585;-71
2023/09/22 06:18:44;;;;;;;5.13;2.90;;;;;16.30;95905.00;;;;5047300;28;20193;-72
2023/09/22 06:21:34;;;;;;;3.50;2.67;;;;;16.80;95887.00;;;;5052946;28;20209;-71
2023/09/22 06:24:24;;;;;;;4.53;2.47;;;;;17.30;95880.00;;;;5044055;28;20205;-71
2023/09/22 06:27:14;;;;;;;6.33;2.93;;;;;17.40;95888.00;;;;5046271;28;20224;-71
2023/09/22 06:30:10;;;;;;;3.80;2.87;;;;;17.30;95893.00;;;;5046589;28;20204;-70
2023/09/22 06:32:59;;;;;;;6.47;2.87;;;;;17.70;95898.00;;;;5049581;28;20266;-71
2023/09/22 06:35:55;;;;;;;8.07;2.33;;;;;18.20;95900.00;;;;5082620;22;20230;-86
2023/09/22 06:38:44;;;;;;;4.70;2.60;;;;;18.30;95905.00;;;;5090751;28;20200;-85
2023/09/22 06:41:34;;;;;;;6.00;2.47;;;;;17.60;95909.00;;;;5095295;28;20216;-86
2023/09/22 06:44:27;;;;;;;4.50;2.23;;;;;18.50;95924.00;;;;5069986;28;20239;-87
2023/09/22 06:47:16;;;;;;;5.23;3.77;;;;;18.90;95914.00;;;;5078666;28;20223;-84
2023/09/22 06:50:06;;;;;;;5.27;3.00;;;;;19.10;95917.00;;;;5079977;28;20204;-85
2023/09/22 06:52:58;;;;;;;5.83;2.77;;;;;19.40;95907.00;;;;5077475;28;20579;-87
2023/09/22 06:55:48;;;;;;;4.70;3.20;;;;;19.60;95911.00;;;;5076249;28;20207;-86
2023/09/22 06:58:38;;;;;;;8.30;3.23;;;;;19.90;95906.00;;;;5072269;28;20810;-85
2023/09/22 07:01:29;;;;;;;5.13;2.40;;;;;20.10;95915.00;;;;5076766;28;20204;-87
2023/09/22 07:04:19;;;;;;;3.23;2.67;;;;;20.30;95904.00;;;;5068473;28;20223;-86
2023/09/22 07:07:10;;;;;;;9.40;3.67;;;;;20.30;95910.00;;;;5074932;28;20226;-87
2023/09/22 07:10:00;;;;;;;8.60;3.33;;;;;19.90;95918.00;;;;5073804;28;20407;-87
2023/09/22 07:12:49;;;;;;;10.80;3.47;;;;;19.80;95917.00;;;;5073452;28;20203;-85
2023/09/22 07:15:40;;;;;;;6.53;3.10;;;;;19.10;95919.00;;;;5076358;28;20211;-86
2023/09/22 07:18:31;;;;;;;4.57;2.03;;;;;19.00;95925.00;;;;5079110;28;20211;-87
2023/09/22 07:21:21;;;;;;;2.50;2.00;;;;;19.30;95920.00;;;;5077630;28;20577;-87
2023/09/22 07:24:10;;;;;;;5.37;2.47;;;;;19.20;95918.00;;;;5077058;28;20249;-84
2023/09/22 07:26:59;;;;;;;7.05;3.00;;;;;19.00;95932.00;;;;5074255;28;20409;-86
2023/09/22 07:29:50;;;;;;;2.30;2.10;;;;;19.30;95937.00;;;;5078888;28;20208;-87
2023/09/22 07:32:40;;;;;;;5.97;2.60;;;;;19.10;95931.00;;;;5074804;28;20570;-86
2023/09/22 07:35:30;;;;;;;4.27;2.60;;;;;19.20;95925.00;;;;5067812;28;20212;-85
2023/09/22 07:38:20;;;;;;;7.17;2.43;;;;;20.00;95932.00;;;;5066698;28;20211;-86
2023/09/22 07:41:09;;;;;;;8.80;2.77;;;;;20.30;95934.00;;;;5081357;28;20201;-85
2023/09/22 07:43:58;;;;;;;6.07;2.40;;;;;20.50;95935.00;;;;5079095;28;20270;-85
2023/09/22 07:46:47;;;;;;;5.20;2.73;;;;;20.90;95927.00;;;;5074245;28;20216;-87
2023/09/22 07:49:37;;;;;;;6.97;3.10;;;;;20.90;95919.00;;;;5079762;28;20300;-86
2023/09/22 07:52:28;;;;;;;3.17;2.13;;;;;20.90;95924.00;;;;5067299;28;20202;-84
2023/09/22 07:55:18;;;;;;;7.70;2.97;;;;;21.40;95928.00;;;;5069242;28;20580;-83
2023/09/22 07:58:09;;;;;;;10.17;2.97;;;;;21.70;95926.00;;;;5066126;28;20192;-85
2023/09/22 08:00:59;;;;;;;4.20;2.20;;;;;22.10;95918.00;;;;5070961;28;20678;-84
2023/09/22 08:03:48;;;;;;;8.77;2.30;;;;;22.00;95926.00;;;;5076687;28;20219;-85
2023/09/22 08:06:37;;;;;;;8.73;2.40;;;;;22.20;95913.00;;;;5073270;28;20266;-84
2023/09/22 08:09:28;;;;;;;7.83;3.83;;;;;22.70;95918.00;;;;5059810;28;20223;-86
2023/09/22 08:12:17;;;;;;;4.50;2.67;;;;;23.10;95936.00;;;;5062939;28;20207;-86
2023/09/22 08:15:08;;;;;;;7.40;2.57;;;;;23.00;95928.00;;;;5058523;28;20234;-85
2023/09/22 08:17:58;;;;;;;3.07;2.40;;;;;23.10;95926.00;;;;5060161;28;20212;-85
2023/09/22 08:20:47;;;;;;;7.17;2.17;;;;;23.70;95919.00;;;;5071047;28;20200;-84
2023/09/22 08:23:36;;;;;;;5.70;2.23;;;;;23.90;95908.00;;;;5068563;28;20220;-86
2023/09/22 08:26:35;;;;;;;4.40;2.20;;;;;23.90;95913.00;;;;5067376;28;20200;-85
2023/09/22 08:29:24;;;;;;;5.70;2.53;;;;;24.30;95902.00;;;;5077895;28;20230;-87
2023/09/22 08:32:13;;;;;;;6.50;2.60;;;;;24.70;95915.00;;;;5080856;28;20199;-85
2023/09/22 08:35:03;;;;;;;10.57;2.67;;;;;24.90;95924.00;;;;5072405;28;20229;-86
2023/09/22 08:37:53;;;;;;;7.60;2.10;;;;;24.70;95918.00;;;;5065274;28;20204;-86
2023/09/22 08:40:43;;;;;;;4.40;2.03;;;;;25.00;95901.00;;;;5069741;28;20219;-85
2023/09/22 08:43:35;;;;;;;5.53;2.57;;;;;25.10;95916.00;;;;5068904;28;20500;-86
2023/09/22 08:46:24;;;;;;;7.23;2.23;;;;;25.30;95918.00;;;;5070014;28;20207;-84
2023/09/22 08:49:15;;;;;;;11.23;3.10;;;;;25.50;95928.00;;;;5076300;28;20758;-86
2023/09/22 08:52:04;;;;;;;9.00;4.07;;;;;25.50;95916.00;;;;5072226;28;20201;-85
2023/09/22 08:54:53;;;;;;;4.50;2.80;;;;;25.70;95922.00;;;;5059888;28;20598;-86
2023/09/22 08:57:44;;;;;;;4.67;2.97;;;;;25.80;95915.00;;;;5058218;28;20204;-84
2023/09/22 09:00:35;;;;;;;5.47;2.80;;;;;25.80;95920.00;;;;5061953;28;20204;-85
2023/09/22 09:03:24;;;;;;;6.30;3.07;;;;;25.80;95916.00;;;;5061077;28;20691;-86
2023/09/22 09:06:17;;;;;;;4.23;2.63;;;;;26.00;95923.00;;;;5063572;28;20602;-85
2023/09/22 09:09:12;;;;;;;9.10;3.20;;;;;26.20;95925.00;;;;5070563;28;20224;-86
2023/09/22 09:12:02;;;;;;;8.07;2.20;;;;;26.50;95921.00;;;;5058952;28;20204;-85
2023/09/22 09:15:00;;;;;;;5.43;2.27;;;;;26.60;95915.00;;;;5070258;28;20330;-86
2023/09/22 09:18:06;;;;;;;5.00;2.60;;;;;26.70;95909.00;;;;5067487;28;20201;-85
2023/09/22 09:21:09;;;;;;;5.10;2.60;;;;;26.80;95900.00;;;;5065070;28;20383;-85
2023/09/22 09:23:58;;;;;;;4.80;2.50;;;;;27.00;95912.00;;;;5070567;28;20224;-86
2023/09/22 09:26:47;;;;;;;8.80;2.93;;;;;27.40;95898.00;;;;5066989;28;20669;-86
2023/09/22 09:29:38;;;;;;;3.17;2.50;;;;;27.60;95908.00;;;;5062836;28;20235;-86
2023/09/22 09:32:29;;;;;;;4.30;2.63;;;;;27.60;95908.00;;;;5069226;28;20212;-86
2023/09/22 09:35:30;;;;;;;5.83;2.47;;;;;27.90;95897.00;;;;5066964;28;20264;-86
2023/09/22 09:38:25;;;;;;;3.80;2.60;;;;;27.70;95905.00;;;;5074005;28;20202;-86
2023/09/22 09:41:15;;;;;;;5.33;2.27;;;;;27.60;95892.00;;;;5066570;28;20218;-85
2023/09/22 09:44:05;;;;;;;8.03;2.50;;;;;27.80;95898.00;;;;5065384;28;20238;-86
2023/09/22 09:46:54;;;;;;;5.83;3.33;;;;;27.30;95890.00;;;;5062986;28;20198;-87
2023/09/22 09:49:44;;;;;;;4.10;2.43;;;;;27.70;95897.00;;;;5066532;28;20844;-85
2023/09/22 09:52:38;;;;;;;5.80;2.23;;;;;28.00;95884.00;;;;5064765;28;20207;-86
2023/09/22 09:55:27;;;;;;;7.07;3.40;;;;;26.90;95858.00;;;;5069491;28;20227;-86
2023/09/22 09:58:17;;;;;;;4.07;1.87;;;;;27.60;95870.00;;;;5062426;28;20207;-86
2023/09/22 10:01:07;;;;;;;5.07;2.37;;;;;28.50;95874.00;;;;5062826;28;20227;-85
2023/09/22 10:03:56;;;;;;;4.13;2.10;;;;;28.60;95869.00;;;;5066617;28;20228;-87
2023/09/22 10:06:45;;;;;;;5.60;2.30;;;;;29.30;95888.00;;;;5065149;28;20218;-85
2023/09/22 10:09:41;;;;;;;5.70;2.30;;;;;28.60;95893.00;;;;5062583;28;20226;-87
2023/09/22 10:12:31;;;;;;;5.53;2.17;;;;;28.50;95886.00;;;;5067594;28;20208;-85
2023/09/22 10:15:52;;;;;;;6.83;2.23;;;;;28.60;95891.00;;;;5066794;28;20566;-86
2023/09/22 10:18:46;;;;;;;3.47;2.23;;;;;27.30;95890.00;;;;5067452;28;20201;-86
2023/09/22 10:21:44;;;;;;;7.83;2.33;;;;;26.90;95898.00;;;;5071294;28;20259;-86
2023/09/22 10:24:38;;;;;;;6.27;2.30;;;;;27.30;95900.00;;;;5059931;28;20303;-85
2023/09/22 10:27:29;;;;;;;7.17;2.27;;;;;27.40;95909.00;;;;5055586;28;20201;-87
2023/09/22 10:30:19;;;;;;;6.97;2.80;;;;;27.30;95903.00;;;;5060519;28;20239;-86
2023/09/22 10:33:27;;;;;;;4.70;2.70;;;;;27.30;95912.00;;;;5065422;28;20212;-86
2023/09/22 10:36:46;;;;;;;5.87;1.83;;;;;27.30;95906.00;;;;5063952;28;20222;-85
2023/09/22 10:39:53;;;;;;;6.73;2.43;;;;;26.90;95912.00;;;;5061904;28;20206;-86
2023/09/22 10:42:46;;;;;;;5.70;2.30;;;;;26.60;95911.00;;;;5062878;28;20211;-84
2023/09/22 10:45:35;;;;;;;6.43;2.27;;;;;26.40;95917.00;;;;5054898;28;20646;-86
2023/09/22 10:48:24;;;;;;;12.50;3.13;;;;;26.50;95911.00;;;;5060524;28;20204;-85
2023/09/22 10:51:14;;;;;;;4.93;2.77;;;;;26.60;95916.00;;;;5062262;28;20227;-85
2023/09/22 10:54:04;;;;;;;6.00;2.40;;;;;26.40;95909.00;;;;5065586;28;20700;-85
2023/09/22 10:56:54;;;;;;;4.10;2.57;;;;;26.50;95901.00;;;;5064703;28;20250;-86
2023/09/22 10:59:45;;;;;;;6.40;2.10;;;;;26.70;95895.00;;;;5065439;28;20208;-86
2023/09/22 11:02:34;;;;;;;6.37;2.53;;;;;26.70;95887.00;;;;5063554;28;20197;-86
2023/09/22 11:05:23;;;;;;;4.40;2.63;;;;;27.50;95878.00;;;;5066981;28;20215;-86
2023/09/22 11:08:13;;;;;;;5.90;3.00;;;;;27.40;95893.00;;;;5072997;28;20335;-85
2023/09/22 11:11:04;;;;;;;10.77;2.57;;;;;27.40;95889.00;;;;5072628;28;20229;-86
2023/09/22 11:13:53;;;;;;;3.47;2.03;;;;;26.90;95891.00;;;;5073338;28;20222;-86
2023/09/22 11:16:50;;;;;;;7.20;3.03;;;;;26.90;95889.00;;;;5074354;28;20686;-86
2023/09/22 11:19:51;;;;;;;5.60;2.60;;;;;27.20;95878.00;;;;5082683;28;20241;-85
2023/09/22 11:22:41;;;;;;;5.47;2.70;;;;;27.30;95878.00;;;;5081240;28;20213;-86
2023/09/22 11:25:30;;;;;;;8.10;2.53;;;;;27.60;95885.00;;;;5074986;28;20332;-86
2023/09/22 11:28:19;;;;;;;8.93;2.70;;;;;27.50;95873.00;;;;5081237;28;20207;-86
2023/09/22 11:31:11;;;;;;;2.90;2.37;;;;;27.40;95884.00;;;;5080914;28;20228;-86
2023/09/22 11:34:03;;;;;;;7.40;2.40;;;;;27.20;95878.00;;;;5080174;28;20244;-86
2023/09/22 11:36:54;;;;;;;8.00;2.77;;;;;27.20;95889.00;;;;5076274;28;20285;-86
2023/09/22 11:39:43;;;;;;;6.97;3.27;;;;;26.80;95891.00;;;;5070335;28;20381;-86
2023/09/22 11:42:33;;;;;;;4.87;2.33;;;;;26.40;95891.00;;;;5062074;28;20646;-86
2023/09/22 11:45:25;;;;;;;6.70;2.60;;;;;26.60;95887.00;;;;5071465;28;20235;-86
2023/09/22 11:48:14;;;;;;;6.33;2.67;;;;;26.60;95849.00;;;;5076504;28;20200;-86
2023/09/22 11:51:05;;;;;;;8.33;2.50;;;;;28.50;95862.00;;;;5082686;28;20699;-85
2023/09/22 11:53:54;;;;;;;5.30;2.63;;;;;28.40;95878.00;;;;5081873;28;20223;-86
2023/09/22 11:56:44;;;;;;;8.27;2.97;;;;;28.30;95878.00;;;;5080589;28;20203;-86
2023/09/22 11:59:34;;;;;;;6.73;3.00;;;;;28.10;95874.00;;;;5067004;28;20228;-85
2023/09/22 12:02:23;;;;;;;7.77;2.90;;;;;28.10;95873.00;;;;5057090;28;20581;-86
2023/09/22 12:05:12;;;;;;;7.03;2.77;;;;;28.40;95873.00;;;;5068834;28;20205;-86
2023/09/22 12:08:03;;;;;;;4.87;3.13;;;;;28.10;95881.00;;;;5067333;28;20421;-86
2023/09/22 12:10:52;;;;;;;9.33;3.23;;;;;28.30;95877.00;;;;5062432;28;20419;-86
2023/09/22 12:13:42;;;;;;;3.97;2.50;;;;;27.50;95878.00;;;;5070245;28;20240;-85
2023/09/22 12:16:32;;;;;;;4.77;3.20;;;;;27.30;95871.00;;;;5073256;28;20205;-86
2023/09/22 12:19:24;;;;;;;4.00;2.30;;;;;27.60;95874.00;;;;5073554;28;20212;-86
2023/09/22 12:22:14;;;;;;;5.57;2.83;;;;;27.80;95868.00;;;;5072087;28;20251;-85
2023/09/22 12:25:06;;;;;;;5.10;2.33;;;;;28.40;95866.00;;;;5071064;28;20233;-85
2023/09/22 12:27:56;;;;;;;6.63;2.90;;;;;29.90;95812.00;;;;5070156;28;20674;-86
2023/09/22 12:30:45;;;;;;;6.23;3.07;;;;;30.60;95867.00;;;;5073705;28;20228;-87
2023/09/22 12:33:34;;;;;;;9.83;2.80;;;;;30.10;95877.00;;;;5073227;28;20227;-86
2023/09/22 12:36:24;;;;;;;4.47;2.13;;;;;30.00;95868.00;;;;5072242;28;20216;-85
2023/09/22 12:39:13;;;;;;;3.67;2.17;;;;;29.90;95868.00;;;;5080773;28;20215;-85
2023/09/22 12:42:04;;;;;;;3.60;2.17;;;;;29.70;95878.00;;;;5074690;28;20216;-86
2023/09/22 12:44:54;;;;;;;4.83;2.57;;;;;29.70;95873.00;;;;5066960;28;20214;-85
2023/09/22 12:47:43;;;;;;;3.80;2.23;;;;;29.40;95873.00;;;;5068338;28;20208;-86
2023/09/22 12:50:32;;;;;;;6.97;2.57;;;;;29.10;95868.00;;;;5068157;28;20223;-86
2023/09/22 12:53:21;;;;;;;4.83;2.40;;;;;29.30;95861.00;;;;5069460;28;20235;-85
2023/09/22 12:56:10;;;;;;;4.00;2.53;;;;;29.30;95861.00;;;;5073744;28;20200;-85
2023/09/22 12:59:01;;;;;;;6.23;3.13;;;;;29.30;95871.00;;;;5084400;28;20210;-86
2023/09/22 13:01:50;;;;;;;5.80;2.33;;;;;29.30;95867.00;;;;5070434;28;20196;-87
2023/09/22 13:04:39;;;;;;;7.80;2.50;;;;;29.10;95869.00;;;;5070196;28;20227;-86
2023/09/22 13:07:28;;;;;;;7.27;2.10;;;;;29.00;95862.00;;;;5065527;28;20647;-85
2023/09/22 13:10:17;;;;;;;9.57;2.50;;;;;28.90;95865.00;;;;5067507;28;20212;-85
2023/09/22 13:13:06;;;;;;;3.30;2.00;;;;;28.90;95859.00;;;;5078305;23;20234;-70
2023/09/22 13:15:56;;;;;;;13.93;3.27;;;;;28.40;95859.00;;;;5075895;28;20220;-69
2023/09/22 13:18:47;;;;;;;11.63;2.90;;;;;28.70;95848.00;;;;5071815;28;20203;-69
2023/09/22 13:21:36;;;;;;;7.77;4.03;;;;;28.80;95862.00;;;;5060362;28;20688;-69
2023/09/22 13:24:26;;;;;;;7.03;2.70;;;;;28.40;95870.00;;;;5065378;28;20198;-69
2023/09/22 13:27:15;;;;;;;4.37;3.20;;;;;28.60;95850.00;;;;5058441;28;20204;-69
2023/09/22 13:30:06;;;;;;;5.03;2.93;;;;;29.10;95856.00;;;;5061364;28;20210;-70
2023/09/22 13:32:57;;;;;;;7.47;2.67;;;;;28.90;95866.00;;;;5058045;28;20601;-69
2023/09/22 13:35:46;;;;;;;5.37;2.57;;;;;28.30;95876.00;;;;5059691;28;20229;-70
2023/09/22 13:38:35;;;;;;;7.97;3.20;;;;;28.20;95865.00;;;;5057923;28;20201;-69
2023/09/22 13:41:24;;;;;;;8.40;2.90;;;;;28.30;95859.00;;;;5053552;28;20572;-69
2023/09/22 13:44:13;;;;;;;5.87;2.70;;;;;28.60;95849.00;;;;5051871;28;20210;-70
2023/09/22 13:47:02;;;;;;;8.30;3.03;;;;;28.50;95850.00;;;;5062237;28;20575;-69
2023/09/22 13:49:53;;;;;;;4.50;2.67;;;;;28.80;95858.00;;;;5061700;28;20206;-69
2023/09/22 13:52:42;;;;;;;5.97;2.67;;;;;28.60;95860.00;;;;5067082;28;20241;-68
2023/09/22 13:55:34;;;;;;;6.57;2.77;;;;;28.40;95852.00;;;;5064870;28;20857;-69
2023/09/22 13:58:23;;;;;;;9.40;3.40;;;;;28.30;95845.00;;;;5065242;28;20201;-70
2023/09/22 14:01:13;;;;;;;14.70;3.53;;;;;27.40;95836.00;;;;5064220;28;20224;-68
2023/09/22 14:04:03;;;;;;;7.77;2.57;;;;;27.60;95846.00;;;;5066455;28;20205;-69
2023/09/22 14:06:53;;;;;;;4.53;2.77;;;;;27.70;95849.00;;;;5060087;28;20226;-69
2023/09/22 14:09:42;;;;;;;3.77;2.70;;;;;27.40;95850.00;;;;5056630;28;20195;-69
2023/09/22 14:12:31;;;;;;;5.87;2.70;;;;;27.40;95854.00;;;;5054519;28;20229;-70
2023/09/22 14:15:20;;;;;;;3.97;2.63;;;;;27.30;95854.00;;;;5058102;28;20231;-69